createdAt,value
2022-08-23T00:02:29.533Z,100470.52
2022-08-23T00:05:07.888Z,100475.50
2022-08-23T00:07:38.212Z,100483.16
2022-08-23T00:10:09.406Z,100481.39
2022-08-23T00:12:40.841Z,100472.53
2022-08-23T00:15:15.055Z,100481.63
2022-08-23T00:17:46.617Z,100485.02
2022-08-23T00:20:20.697Z,100480.89
2022-08-23T00:22:51.598Z,100487.46
2022-08-23T00:25:22.798Z,100476.70
2022-08-23T00:27:54.456Z,100471.27
2022-08-23T00:30:25.961Z,100464.64
2022-08-23T00:32:58.109Z,100463.81
2022-08-23T00:35:29.350Z,100469.94
2022-08-23T00:38:32.982Z,100474.85
2022-08-23T00:40:33.523Z,100475.70
2022-08-23T00:43:25.543Z,100476.63
2022-08-23T00:46:36.881Z,100477.56
2022-08-23T00:49:11.008Z,100479.38
2022-08-23T00:51:53.036Z,100488.90
2022-08-23T00:54:27.661Z,100491.69
2022-08-23T00:57:01.371Z,100489.98
2022-08-23T00:59:32.460Z,100496.75
2022-08-23T01:02:04.148Z,100485.03
2022-08-23T01:04:37.926Z,100490.94
2022-08-23T01:07:17.894Z,100484.80
2022-08-23T01:09:51.047Z,100480.11
2022-08-23T01:12:32.936Z,100474.80
2022-08-23T01:15:03.440Z,100483.88
2022-08-23T01:17:46.207Z,100481.70
2022-08-23T01:20:20.280Z,100499.75
2022-08-23T01:23:00.647Z,100490.27
2022-08-23T01:25:34.700Z,100494.16
2022-08-23T01:28:05.877Z,100487.63
2022-08-23T01:30:39.336Z,100494.61
2022-08-23T01:33:13.068Z,100481.58
2022-08-23T01:35:50.165Z,100490.94
2022-08-23T01:38:22.627Z,100485.64
2022-08-23T01:40:53.698Z,100487.21
2022-08-23T01:43:25.283Z,100476.33
2022-08-23T01:45:57.864Z,100474.58
2022-08-23T01:48:28.927Z,100477.74
2022-08-23T01:50:59.981Z,100468.54
2022-08-23T01:53:31.066Z,100470.59
2022-08-23T01:56:02.207Z,100477.86
2022-08-23T01:58:37.166Z,100470.69
2022-08-23T02:01:08.435Z,100474.11
2022-08-23T02:03:39.568Z,100477.22
2022-08-23T02:06:10.580Z,100480.56
2022-08-23T02:08:59.175Z,100477.73
2022-08-23T02:11:35.859Z,100477.00
2022-08-23T02:14:10.031Z,100480.84
2022-08-23T02:16:43.840Z,100477.91
2022-08-23T02:19:17.929Z,100487.44
2022-08-23T02:21:49.200Z,100495.56
2022-08-23T02:24:23.191Z,100493.38
2022-08-23T02:26:57.207Z,100487.00
2022-08-23T02:29:32.499Z,100494.73
2022-08-23T02:32:05.256Z,100491.05
2022-08-23T02:34:36.779Z,100495.47
2022-08-23T02:37:10.496Z,100487.49
2022-08-23T02:39:42.335Z,100494.95
2022-08-23T02:42:13.919Z,100487.78
2022-08-23T02:44:45.049Z,100492.91
2022-08-23T02:47:15.956Z,100493.89
2022-08-23T02:49:47.303Z,100506.13
2022-08-23T02:52:18.161Z,100496.94
2022-08-23T02:54:49.220Z,100506.30
2022-08-23T02:57:21.679Z,100505.89
2022-08-23T02:59:52.979Z,100509.05
2022-08-23T03:02:23.995Z,100518.52
2022-08-23T03:04:55.369Z,100525.58
2022-08-23T03:07:26.597Z,100528.52
2022-08-23T03:09:59.051Z,100528.86
2022-08-23T03:12:30.240Z,100517.69
2022-08-23T03:15:01.231Z,100522.09
2022-08-23T03:17:33.284Z,100520.17
2022-08-23T03:20:05.441Z,100523.42
2022-08-23T03:22:36.596Z,100535.28
2022-08-23T03:25:08.703Z,100534.66
2022-08-23T03:27:44.664Z,100534.39
2022-08-23T03:30:17.958Z,100533.94
2022-08-23T03:32:48.966Z,100533.94
2022-08-23T03:35:20.898Z,100536.13
2022-08-23T03:37:55.218Z,100539.41
2022-08-23T03:40:26.263Z,100535.28
2022-08-23T03:42:57.241Z,100535.13
2022-08-23T03:45:28.835Z,100542.27
2022-08-23T03:48:00.139Z,100548.05
2022-08-23T03:50:31.393Z,100541.78
2022-08-23T03:53:03.827Z,100531.80
2022-08-23T03:55:34.980Z,100545.72
2022-08-23T03:58:07.650Z,100543.52
2022-08-23T04:00:39.416Z,100542.28
2022-08-23T04:03:11.097Z,100543.13
2022-08-23T04:05:42.188Z,100549.67
2022-08-23T04:08:14.668Z,100550.30
2022-08-23T04:10:47.162Z,100546.88
2022-08-23T04:13:18.061Z,100553.72
2022-08-23T04:15:50.417Z,100546.48
2022-08-23T04:18:21.360Z,100546.68
2022-08-23T04:20:53.018Z,100541.55
2022-08-23T04:23:23.779Z,100540.07
2022-08-23T04:25:54.699Z,100541.20
2022-08-23T04:28:26.548Z,100542.63
2022-08-23T04:30:59.431Z,100542.61
2022-08-23T04:33:33.387Z,100544.91
2022-08-23T04:36:05.657Z,100544.77
2022-08-23T04:38:36.826Z,100548.22
2022-08-23T04:41:26.150Z,100545.39
2022-08-23T04:43:58.752Z,100543.19
2022-08-23T04:46:29.802Z,100533.70
2022-08-23T04:49:02.298Z,100534.78
2022-08-23T04:51:33.148Z,100533.95
2022-08-23T04:54:04.978Z,100532.23
2022-08-23T04:56:36.394Z,100526.62
2022-08-23T04:59:07.898Z,100523.23
2022-08-23T05:01:40.770Z,100519.20
2022-08-23T05:04:12.223Z,100522.09
2022-08-23T05:06:42.981Z,100530.72
2022-08-23T05:09:18.419Z,100522.56
2022-08-23T05:11:46.758Z,100520.23
2022-08-23T05:14:18.003Z,100526.98
2022-08-23T05:16:49.188Z,100522.11
2022-08-23T05:19:20.108Z,100523.08
2022-08-23T05:21:57.171Z,100519.48
2022-08-23T05:24:28.308Z,100515.80
2022-08-23T05:26:59.629Z,100524.30
2022-08-23T05:29:30.929Z,100529.72
2022-08-23T05:32:01.755Z,100537.11
2022-08-23T05:34:32.809Z,100522.44
2022-08-23T05:37:04.349Z,100514.77
2022-08-23T05:39:37.110Z,100520.20
2022-08-23T05:42:14.072Z,100505.90
2022-08-23T05:44:47.469Z,100515.32
2022-08-23T05:47:24.664Z,100519.67
2022-08-23T05:49:52.274Z,100513.45
2022-08-23T05:52:23.516Z,100522.06
2022-08-23T05:54:54.568Z,100518.33
2022-08-23T05:57:25.552Z,100520.02
2022-08-23T05:59:56.379Z,100529.80
2022-08-23T06:02:28.388Z,100524.79
2022-08-23T06:04:59.825Z,100529.14
2022-08-23T06:07:31.802Z,100527.48
2022-08-23T06:10:03.688Z,100525.84
2022-08-23T06:12:35.343Z,100526.53
2022-08-23T06:15:06.682Z,100526.44
2022-08-23T06:17:37.977Z,100531.45
2022-08-23T06:20:10.661Z,100532.27
2022-08-23T06:22:42.389Z,100537.74
2022-08-23T06:25:13.308Z,100536.09
2022-08-23T06:27:44.259Z,100546.36
2022-08-23T06:30:16.084Z,100536.03
2022-08-23T06:32:47.333Z,100540.28
2022-08-23T06:35:37.747Z,100547.89
2022-08-23T06:37:51.871Z,100545.63
2022-08-23T06:40:24.134Z,100536.88
2022-08-23T06:42:56.747Z,100547.16
2022-08-23T06:45:35.115Z,100544.68
2022-08-23T06:48:00.526Z,100539.60
2022-08-23T06:50:32.455Z,100535.91
2022-08-23T06:53:07.091Z,100547.03
2022-08-23T06:55:36.342Z,100542.84
2022-08-23T06:58:07.298Z,100527.72
2022-08-23T07:00:38.581Z,100530.76
2022-08-23T07:03:10.050Z,100539.26
2022-08-23T07:05:40.980Z,100531.93
2022-08-23T07:08:11.971Z,100528.25
2022-08-23T07:10:43.310Z,100519.84
2022-08-23T07:13:18.384Z,100514.55
2022-08-23T07:15:50.349Z,100525.31
2022-08-23T07:18:22.454Z,100514.58
2022-08-23T07:21:01.746Z,100515.11
2022-08-23T07:23:35.059Z,100532.70
2022-08-23T07:26:19.323Z,100525.63
2022-08-23T07:29:06.786Z,100529.63
2022-08-23T07:31:34.093Z,100523.48
2022-08-23T07:34:08.041Z,100530.91
2022-08-23T07:36:40.626Z,100532.63
2022-08-23T07:39:12.138Z,100525.86
2022-08-23T07:41:44.686Z,100525.02
2022-08-23T07:44:17.964Z,100526.74
2022-08-23T07:46:49.627Z,100533.91
2022-08-23T07:49:20.574Z,100528.32
2022-08-23T07:51:53.151Z,100533.48
2022-08-23T07:54:25.609Z,100547.12
2022-08-23T07:56:56.772Z,100544.69
2022-08-23T07:59:30.422Z,100551.41
2022-08-23T08:02:00.468Z,100558.18
2022-08-23T08:04:31.474Z,100560.75
2022-08-23T08:07:19.363Z,100569.22
2022-08-23T08:09:36.278Z,100569.22
2022-08-23T08:25:00.326Z,100594.98
2022-08-23T08:27:33.279Z,100616.11
2022-08-23T08:30:08.201Z,100616.37
2022-08-23T08:32:46.958Z,100611.24
2022-08-23T08:35:12.888Z,100615.81
2022-08-23T08:37:44.671Z,100619.53
2022-08-23T08:40:17.506Z,100620.68
2022-08-23T08:43:07.040Z,100616.78
2022-08-23T08:45:52.078Z,100631.17
2022-08-23T08:48:24.081Z,100619.26
2022-08-23T08:51:00.867Z,100627.56
2022-08-23T08:53:36.940Z,100621.99
2022-08-23T08:56:29.744Z,100623.00
2022-08-23T08:59:01.969Z,100617.38
2022-08-23T09:01:35.571Z,100629.02
2022-08-23T09:04:08.507Z,100640.06
2022-08-23T09:06:58.970Z,100642.05
2022-08-23T09:09:34.508Z,100635.89
2022-08-23T09:12:23.425Z,100638.20
2022-08-23T09:14:57.317Z,100642.08
2022-08-23T09:17:46.654Z,100620.39
2022-08-23T09:20:21.300Z,100660.73
2022-08-23T09:23:11.284Z,100674.34
2022-08-23T09:25:42.981Z,100671.50
2022-08-23T09:28:16.631Z,100680.11
2022-08-23T09:30:56.446Z,100690.45
2022-08-23T09:33:30.259Z,100703.34
2022-08-23T09:36:10.193Z,100705.05
2022-08-23T09:38:43.412Z,100696.02
2022-08-23T09:41:20.778Z,100699.03
2022-08-23T09:43:52.704Z,100694.72
2022-08-23T09:46:27.289Z,100695.59
2022-08-23T09:49:02.327Z,100695.77
2022-08-23T09:51:37.769Z,100711.02
2022-08-23T09:54:20.843Z,100717.68
2022-08-23T09:56:58.288Z,100714.59
2022-08-23T09:59:35.445Z,100714.67
2022-08-23T10:02:10.689Z,100705.89
2022-08-23T10:04:48.255Z,100700.73
2022-08-23T10:07:32.125Z,100693.85
2022-08-23T10:10:18.777Z,100685.40
2022-08-23T10:12:50.310Z,100678.36
2022-08-23T10:15:29.005Z,100690.27
2022-08-23T10:18:09.517Z,100700.58
2022-08-23T10:20:43.574Z,100699.73
2022-08-23T10:23:41.665Z,100683.92
2022-08-23T10:26:19.179Z,100690.66
2022-08-23T10:29:23.168Z,100704.02
2022-08-23T10:32:10.220Z,100713.30
2022-08-23T10:35:09.559Z,100731.78
2022-08-23T10:37:59.197Z,100714.83
2022-08-23T10:40:49.588Z,100713.36
2022-08-23T10:43:31.226Z,100721.55
2022-08-23T10:46:04.310Z,100714.19
2022-08-23T10:48:41.731Z,100715.59
2022-08-23T10:51:23.196Z,100726.75
2022-08-23T10:53:58.915Z,100721.42
2022-08-23T10:56:31.273Z,100714.25
2022-08-23T10:59:16.131Z,100727.38
2022-08-23T11:02:00.390Z,100714.94
2022-08-23T11:04:56.739Z,100709.13
2022-08-23T11:07:38.140Z,100707.50
2022-08-23T11:10:17.930Z,100715.63
2022-08-23T11:13:09.008Z,100709.36
2022-08-23T11:16:01.794Z,100701.73
2022-08-23T11:18:44.904Z,100698.12
2022-08-23T11:21:33.505Z,100703.88
2022-08-23T11:24:07.905Z,100703.61
2022-08-23T11:26:41.932Z,100699.47
2022-08-23T11:29:29.994Z,100704.59
2022-08-23T11:32:18.726Z,100700.58
2022-08-23T11:35:06.123Z,100700.95
2022-08-23T11:37:53.862Z,100693.64
2022-08-23T11:40:41.339Z,100690.12
2022-08-23T11:43:28.219Z,100684.80
2022-08-23T11:46:14.660Z,100677.87
2022-08-23T11:48:49.563Z,100664.39
2022-08-23T11:51:48.912Z,100660.31
2022-08-23T11:54:39.751Z,100673.52
2022-08-23T11:57:29.112Z,100676.38
2022-08-23T12:00:26.898Z,100668.02
2022-08-23T12:02:59.082Z,100675.41
2022-08-23T12:05:43.835Z,100683.38
2022-08-23T12:08:25.119Z,100694.16
2022-08-23T12:10:59.536Z,100683.73
2022-08-23T12:13:36.743Z,100687.52
2022-08-23T12:16:17.853Z,100674.00
2022-08-23T12:18:55.771Z,100674.03
2022-08-23T12:21:43.322Z,100677.75
2022-08-23T12:24:36.825Z,100676.66
2022-08-23T12:27:19.753Z,100670.33
2022-08-23T12:30:17.690Z,100686.70
2022-08-23T12:33:03.039Z,100673.94
2022-08-23T12:35:58.873Z,100676.34
2022-08-23T12:38:42.318Z,100676.66
2022-08-23T12:41:22.265Z,100667.03
2022-08-23T12:44:08.672Z,100676.64
2022-08-23T12:46:42.889Z,100678.38
2022-08-23T12:49:29.207Z,100674.23
2022-08-23T12:52:03.324Z,100682.69
2022-08-23T12:54:39.809Z,100682.09
2022-08-23T12:57:13.788Z,100684.72
2022-08-23T12:59:48.271Z,100675.22
2022-08-23T13:02:27.988Z,100681.48
2022-08-23T13:05:14.498Z,100677.72
2022-08-23T13:07:46.564Z,100679.38
2022-08-23T13:10:18.249Z,100656.53
2022-08-23T13:12:49.778Z,100654.69
2022-08-23T13:15:47.242Z,100652.25
2022-08-23T13:18:31.153Z,100642.70
2022-08-23T13:21:23.676Z,100649.52
2022-08-23T13:23:58.316Z,100655.03
2022-08-23T13:26:45.302Z,100653.92
2022-08-23T13:29:22.520Z,100667.06
2022-08-23T13:32:03.114Z,100652.03
2022-08-23T13:34:39.168Z,100657.97
2022-08-23T13:37:22.776Z,100649.75
2022-08-23T13:39:56.380Z,100642.88
2022-08-23T13:42:30.235Z,100644.48
2022-08-23T13:45:10.499Z,100638.42
2022-08-23T13:47:44.520Z,100626.30
2022-08-23T13:50:21.378Z,100622.13
2022-08-23T13:55:26.694Z,100621.38
2022-08-23T13:57:59.361Z,100611.28
2022-08-23T14:00:31.246Z,100618.06
2022-08-23T14:03:03.186Z,100612.63
2022-08-23T14:05:35.614Z,100606.92
2022-08-23T14:08:07.388Z,100594.72
2022-08-23T14:10:39.335Z,100590.45
2022-08-23T14:13:11.776Z,100595.95
2022-08-23T14:16:32.850Z,100602.36
2022-08-23T14:18:19.422Z,100599.09
2022-08-23T14:20:51.646Z,100600.58
2022-08-23T14:23:24.253Z,100588.66
2022-08-23T14:25:58.945Z,100587.20
2022-08-23T14:28:31.899Z,100588.70
2022-08-23T14:31:03.335Z,100592.78
2022-08-23T14:33:36.254Z,100584.43
2022-08-23T14:36:08.802Z,100586.86
2022-08-23T14:38:40.816Z,100585.98
2022-08-23T14:41:14.855Z,100576.15
2022-08-23T14:43:46.376Z,100581.91
2022-08-23T14:46:17.540Z,100575.19
2022-08-23T14:48:49.246Z,100570.41
2022-08-23T14:51:29.519Z,100578.93
2022-08-23T14:54:02.038Z,100571.72
2022-08-23T14:56:35.028Z,100573.16
2022-08-23T14:59:08.242Z,100573.30
2022-08-23T15:01:41.333Z,100562.95
2022-08-23T15:04:13.615Z,100570.14
2022-08-23T15:07:14.072Z,100577.05
2022-08-23T15:09:22.909Z,100577.50
2022-08-23T15:14:28.859Z,100587.31
2022-08-23T15:17:00.432Z,100601.84
2022-08-23T15:19:33.131Z,100607.47
2022-08-23T15:22:21.864Z,100598.45
2022-08-23T15:24:41.087Z,100607.20
2022-08-23T15:27:13.720Z,100613.37
2022-08-23T15:29:46.663Z,100606.81
2022-08-23T15:32:22.704Z,100606.81
2022-08-23T15:34:52.036Z,100614.87
2022-08-23T15:37:23.751Z,100607.05
2022-08-23T15:39:55.575Z,100608.31
2022-08-23T15:42:27.028Z,100610.79
2022-08-23T15:44:58.763Z,100602.58
2022-08-23T15:47:33.564Z,100612.40
2022-08-23T15:50:07.199Z,100615.33
2022-08-23T15:52:38.425Z,100615.90
2022-08-23T15:55:09.968Z,100609.09
2022-08-23T15:57:48.030Z,100610.81
2022-08-23T16:00:21.878Z,100606.28
2022-08-23T16:03:20.549Z,100612.86
2022-08-23T16:05:28.236Z,100609.40
2022-08-23T16:08:01.866Z,100607.70
2022-08-23T16:10:34.550Z,100609.51
2022-08-23T16:13:05.667Z,100603.27
2022-08-23T16:15:38.832Z,100614.89
2022-08-23T16:18:12.739Z,100611.59
2022-08-23T16:20:44.352Z,100621.69
2022-08-23T16:23:18.556Z,100631.84
2022-08-23T16:25:50.461Z,100634.58
2022-08-23T16:28:23.138Z,100631.73
2022-08-23T16:30:55.963Z,100631.39
2022-08-23T16:33:27.294Z,100634.66
2022-08-23T16:35:59.006Z,100634.55
2022-08-23T16:38:30.934Z,100637.45
2022-08-23T16:41:02.437Z,100630.97
2022-08-23T16:43:34.705Z,100646.77
2022-08-23T16:46:09.145Z,100650.59
2022-08-23T16:48:43.163Z,100645.12
2022-08-23T16:51:17.821Z,100653.08
2022-08-23T16:54:01.835Z,100658.73
2022-08-23T16:56:23.248Z,100660.89
2022-08-23T16:58:54.335Z,100659.80
2022-08-23T17:01:25.735Z,100666.05
2022-08-23T17:03:57.204Z,100661.67
2022-08-23T17:06:28.479Z,100661.23
2022-08-23T17:09:00.018Z,100666.20
2022-08-23T17:11:32.728Z,100668.00
2022-08-23T17:14:05.014Z,100664.11
2022-08-23T17:16:37.220Z,100665.75
2022-08-23T17:19:10.594Z,100676.62
2022-08-23T17:21:42.981Z,100674.56
2022-08-23T17:24:14.259Z,100669.88
2022-08-23T17:26:45.650Z,100667.92
2022-08-23T17:29:17.560Z,100670.19
2022-08-23T17:31:50.397Z,100663.14
2022-08-23T17:34:22.186Z,100666.06
2022-08-23T17:36:56.106Z,100669.56
2022-08-23T17:39:30.104Z,100666.00
2022-08-23T17:42:01.470Z,100663.17
2022-08-23T17:44:34.285Z,100669.34
2022-08-23T17:47:09.172Z,100670.34
2022-08-23T17:49:41.547Z,100676.14
2022-08-23T17:52:12.955Z,100677.94
2022-08-23T17:54:45.647Z,100676.69
2022-08-23T17:57:17.415Z,100681.84
2022-08-23T17:59:48.572Z,100684.82
2022-08-23T18:02:22.275Z,100684.09
2022-08-23T18:04:53.569Z,100684.28
2022-08-23T18:07:25.313Z,100684.89
2022-08-23T18:09:56.451Z,100682.85
2022-08-23T18:12:27.684Z,100689.72
2022-08-23T18:14:58.953Z,100699.47
2022-08-23T18:17:32.456Z,100698.63
2022-08-23T18:20:04.612Z,100688.88
2022-08-23T18:22:37.944Z,100714.51
2022-08-23T18:25:13.812Z,100717.23
2022-08-23T18:27:59.178Z,100720.67
2022-08-23T18:30:30.649Z,100735.63
2022-08-23T18:33:02.078Z,100736.95
2022-08-23T18:35:34.001Z,100740.70
2022-08-23T18:38:06.391Z,100748.65
2022-08-23T18:40:39.387Z,100745.19
2022-08-23T18:43:10.964Z,100746.81
2022-08-23T18:45:43.613Z,100761.45
2022-08-23T18:48:15.185Z,100757.70
2022-08-23T18:50:48.623Z,100760.45
2022-08-23T18:53:21.596Z,100766.20
2022-08-23T18:55:52.876Z,100760.60
2022-08-23T18:58:24.375Z,100761.16
2022-08-23T19:00:57.635Z,100760.16
2022-08-23T19:03:30.461Z,100760.59
2022-08-23T19:06:01.899Z,100766.94
2022-08-23T19:08:33.087Z,100775.38
2022-08-23T19:11:04.887Z,100768.78
2022-08-23T19:13:38.837Z,100772.96
2022-08-23T19:16:15.889Z,100776.86
2022-08-23T19:18:48.093Z,100776.15
2022-08-23T19:21:21.933Z,100786.47
2022-08-23T19:23:55.858Z,100782.89
2022-08-23T19:26:34.831Z,100776.44
2022-08-23T19:29:09.257Z,100779.59
2022-08-23T19:31:46.792Z,100776.59
2022-08-23T19:34:19.276Z,100786.63
2022-08-23T19:37:00.836Z,100782.34
2022-08-23T19:39:26.553Z,100785.92
2022-08-23T19:41:57.942Z,100791.53
2022-08-23T19:44:29.611Z,100791.67
2022-08-23T19:47:01.003Z,100785.15
2022-08-23T19:49:33.151Z,100792.17
2022-08-23T19:52:05.559Z,100791.46
2022-08-23T19:54:38.114Z,100786.28
2022-08-23T19:57:11.633Z,100792.89
2022-08-23T19:59:42.978Z,100786.72
2022-08-23T20:02:14.853Z,100791.73
2022-08-23T20:04:46.164Z,100795.14
2022-08-23T20:07:19.105Z,100785.94
2022-08-23T20:09:50.364Z,100783.07
2022-08-23T20:12:22.014Z,100788.39
2022-08-23T20:14:54.333Z,100800.27
2022-08-23T20:17:25.593Z,100799.55
2022-08-23T20:19:56.977Z,100796.64
2022-08-23T20:22:41.902Z,100805.65
2022-08-23T20:25:16.637Z,100802.49
2022-08-23T20:27:48.820Z,100812.59
2022-08-23T20:30:20.121Z,100823.05
2022-08-23T20:32:54.370Z,100826.13
2022-08-23T20:35:25.548Z,100814.69
2022-08-23T20:37:57.154Z,100829.90
2022-08-23T20:40:28.267Z,100828.97
2022-08-23T20:42:59.700Z,100818.69
2022-08-23T20:45:31.001Z,100819.80
2022-08-23T20:48:02.893Z,100824.33
2022-08-23T20:50:34.910Z,100832.30
2022-08-23T20:53:07.643Z,100828.12
2022-08-23T20:55:40.702Z,100829.77
2022-08-23T20:58:14.815Z,100828.20
2022-08-23T21:00:47.598Z,100817.44
2022-08-23T21:03:19.710Z,100827.47
2022-08-23T21:05:51.178Z,100833.18
2022-08-23T21:08:22.575Z,100837.08
2022-08-23T21:10:55.470Z,100836.55
2022-08-23T21:13:26.789Z,100832.58
2022-08-23T21:15:58.066Z,100832.50
2022-08-23T21:18:31.082Z,100833.05
2022-08-23T21:21:02.352Z,100822.88
2022-08-23T21:23:35.573Z,100828.79
2022-08-23T21:26:07.845Z,100831.44
2022-08-23T21:28:39.741Z,100833.18
2022-08-23T21:31:13.669Z,100832.03
2022-08-23T21:33:46.145Z,100828.59
2022-08-23T21:36:18.317Z,100841.19
2022-08-23T21:38:51.425Z,100835.95
2022-08-23T21:41:42.541Z,100833.70
2022-08-23T21:44:20.111Z,100827.60
2022-08-23T21:46:51.254Z,100836.63
2022-08-23T21:49:23.998Z,100826.55
2022-08-23T21:51:55.445Z,100821.10
2022-08-23T21:54:27.235Z,100820.97
2022-08-23T21:56:58.634Z,100832.92
2022-08-23T21:59:30.333Z,100842.17
2022-08-23T22:02:03.152Z,100838.66
2022-08-23T22:04:34.367Z,100839.33
2022-08-23T22:07:09.689Z,100834.42
2022-08-23T22:09:42.120Z,100824.70
2022-08-23T22:12:13.282Z,100828.12
2022-08-23T22:14:44.403Z,100832.77
2022-08-23T22:17:17.125Z,100838.09
2022-08-23T22:19:48.210Z,100831.03
2022-08-23T22:22:20.788Z,100837.86
2022-08-23T22:24:52.363Z,100854.92
2022-08-23T22:27:24.512Z,100850.20
2022-08-23T22:29:56.099Z,100841.64
2022-08-23T22:32:27.377Z,100834.30
2022-08-23T22:34:59.494Z,100844.80
2022-08-23T22:37:32.516Z,100838.11
2022-08-23T22:40:04.138Z,100829.55
2022-08-23T22:42:36.020Z,100825.60
2022-08-23T22:45:09.231Z,100824.03
2022-08-23T22:47:40.519Z,100830.08
2022-08-23T22:50:12.880Z,100838.35
2022-08-23T22:52:44.086Z,100833.63
2022-08-23T22:55:16.327Z,100832.73
2022-08-23T22:57:47.315Z,100836.20
2022-08-23T23:00:19.228Z,100834.42
2022-08-23T23:02:50.615Z,100844.19
2022-08-23T23:05:22.500Z,100836.28
2022-08-23T23:08:06.879Z,100834.17
2022-08-23T23:10:38.146Z,100836.67
2022-08-23T23:13:09.476Z,100840.61
2022-08-23T23:15:40.833Z,100838.13
2022-08-23T23:18:12.115Z,100847.63
2022-08-23T23:20:44.653Z,100841.82
2022-08-23T23:23:18.978Z,100847.63
2022-08-23T23:25:51.397Z,100855.77
2022-08-23T23:28:24.765Z,100853.66
2022-08-23T23:30:59.780Z,100854.77
2022-08-23T23:33:32.356Z,100858.62
2022-08-23T23:36:03.742Z,100854.89
2022-08-23T23:38:35.136Z,100850.09
2022-08-23T23:41:10.199Z,100853.77
2022-08-23T23:43:43.304Z,100852.45
2022-08-23T23:46:17.179Z,100848.98
2022-08-23T23:48:49.900Z,100847.64
2022-08-23T23:51:26.997Z,100853.19
2022-08-23T23:54:01.139Z,100847.64
2022-08-23T23:56:33.786Z,100852.33
2022-08-23T23:59:05.363Z,100855.52
